Time;durP1;ratioP1;P1;durP2;ratioP2;P2;SDS_P1;SDS_P2;PMS_P1;PMS_P2;Temp;Humidity;BMP_temperature;BMP_pressure;BME280_temperature;BME280_humidity;BME280_pressure;Samples;Min_cycle;Max_cycle;Signal;HPM_P1;HPM_P2
2021/07/14 00:00:45;;;;;;;25.35;15.13;;;27.00;65.10;;;;;;6176344;28;83371;-69
2021/07/14 00:03:45;;;;;;;27.35;16.38;;;27.00;65.40;;;;;;6180169;28;83184;-69
2021/07/14 00:06:46;;;;;;;27.13;15.93;;;27.00;65.40;;;;;;6178351;28;85216;-68
2021/07/14 00:09:46;;;;;;;19.48;14.57;;;27.00;65.40;;;;;;6176917;28;84458;-68
2021/07/14 00:13:05;;;;;;;19.73;14.02;;;27.00;65.80;;;;;;6172365;28;83300;-76
2021/07/14 00:22:44;;;;;;;18.48;13.13;;;26.90;63.80;;;;;;6179420;28;83801;-70
2021/07/14 00:25:44;;;;;;;20.60;13.57;;;26.90;64.00;;;;;;6180265;28;82952;-70
2021/07/14 00:28:49;;;;;;;17.25;12.90;;;26.90;64.00;;;;;;6179410;28;83381;-70
2021/07/14 00:31:49;;;;;;;20.05;14.13;;;26.90;63.80;;;;;;6178889;28;82790;-70
2021/07/14 00:34:50;;;;;;;22.83;13.55;;;27.00;63.90;;;;;;6172006;28;83033;-70
2021/07/14 00:37:50;;;;;;;16.52;14.13;;;26.90;63.90;;;;;;6170964;28;83402;-70
2021/07/14 00:40:51;;;;;;;24.45;13.82;;;27.00;64.80;;;;;;6177485;28;83463;-71
2021/07/14 00:43:51;;;;;;;23.52;15.68;;;27.00;64.80;;;;;;6176828;28;83130;-71
2021/07/14 00:46:52;;;;;;;22.88;15.68;;;27.00;65.40;;;;;;6176931;28;83568;-71
2021/07/14 00:49:52;;;;;;;20.02;14.60;;;26.90;65.70;;;;;;6179028;28;82976;-71
2021/07/14 00:52:53;;;;;;;18.17;13.93;;;26.90;65.50;;;;;;6174871;28;83075;-71
2021/07/14 00:55:53;;;;;;;19.05;14.07;;;26.90;65.50;;;;;;6179942;28;82867;-71
2021/07/14 00:58:55;;;;;;;17.65;13.38;;;26.90;65.40;;;;;;6182012;28;85220;-70
2021/07/14 01:01:55;;;;;;;21.08;13.80;;;26.90;65.50;;;;;;6175084;28;83584;-71
2021/07/14 01:04:56;;;;;;;17.45;13.45;;;26.90;65.50;;;;;;6176641;28;83523;-72
2021/07/14 01:07:56;;;;;;;19.40;13.38;;;26.90;65.60;;;;;;6174009;28;84355;-71
2021/07/14 01:10:57;;;;;;;18.52;14.55;;;26.90;65.80;;;;;;6175098;28;84289;-71
2021/07/14 01:13:57;;;;;;;16.88;12.50;;;26.90;65.50;;;;;;6193199;28;86079;-72
2021/07/14 01:16:58;;;;;;;17.85;13.18;;;26.90;65.90;;;;;;6176606;28;83780;-71
2021/07/14 01:19:58;;;;;;;19.75;12.98;;;26.90;65.80;;;;;;6173072;28;83562;-71
2021/07/14 01:22:59;;;;;;;16.10;12.55;;;26.80;65.70;;;;;;6178886;28;83111;-71
2021/07/14 01:25:59;;;;;;;17.88;14.45;;;26.80;65.90;;;;;;6174972;28;82978;-71
2021/07/14 01:29:00;;;;;;;15.63;13.32;;;26.90;65.60;;;;;;6179763;28;85407;-72
2021/07/14 01:32:00;;;;;;;16.08;13.52;;;26.90;65.90;;;;;;6174094;28;83403;-72
2021/07/14 01:35:01;;;;;;;17.33;12.50;;;26.90;65.80;;;;;;6170602;28;83508;-71
2021/07/14 01:38:01;;;;;;;20.10;14.07;;;26.90;66.10;;;;;;6175264;28;85643;-69
2021/07/14 01:41:02;;;;;;;18.90;13.57;;;26.90;66.10;;;;;;6170375;28;83130;-70
2021/07/14 01:44:02;;;;;;;16.80;13.48;;;26.90;66.30;;;;;;6177509;28;82877;-71
2021/07/14 01:47:03;;;;;;;16.17;13.77;;;26.90;66.40;;;;;;6177448;28;85781;-70
2021/07/14 01:50:03;;;;;;;22.10;14.93;;;26.90;66.50;;;;;;6175172;28;83088;-71
2021/07/14 01:53:04;;;;;;;16.00;13.35;;;26.90;66.60;;;;;;6173129;28;84540;-71
2021/07/14 01:56:04;;;;;;;21.45;14.50;;;26.90;66.40;;;;;;6177307;28;83892;-70
2021/07/14 01:59:05;;;;;;;19.92;13.52;;;26.90;66.20;;;;;;6176613;28;83564;-71
2021/07/14 02:02:06;;;;;;;24.65;13.43;;;26.90;66.20;;;;;;6168496;28;84086;-72
2021/07/14 02:05:06;;;;;;;19.25;14.40;;;26.90;66.30;;;;;;6168284;28;83020;-71
2021/07/14 02:08:07;;;;;;;21.65;14.45;;;26.90;66.40;;;;;;6192320;28;84168;-72
2021/07/14 02:11:07;;;;;;;18.88;13.65;;;26.90;66.20;;;;;;6175345;28;82963;-72
2021/07/14 02:14:08;;;;;;;17.60;13.77;;;26.90;66.40;;;;;;6176418;28;83991;-73
2021/07/14 02:17:08;;;;;;;20.00;13.88;;;26.90;66.40;;;;;;6177036;28;82789;-72
2021/07/14 02:20:09;;;;;;;19.50;13.82;;;26.90;66.40;;;;;;6174448;28;84267;-72
2021/07/14 02:23:09;;;;;;;18.25;13.93;;;26.90;66.30;;;;;;6168363;28;83466;-71
2021/07/14 02:26:10;;;;;;;18.15;12.77;;;26.90;66.30;;;;;;6174537;28;84031;-70
2021/07/14 02:29:10;;;;;;;16.50;14.27;;;26.80;66.10;;;;;;6177534;28;83258;-72
2021/07/14 02:32:11;;;;;;;18.15;14.25;;;26.80;66.30;;;;;;6166333;28;83118;-71
2021/07/14 02:35:11;;;;;;;18.08;13.30;;;26.80;66.30;;;;;;6175214;28;83105;-71
2021/07/14 02:38:12;;;;;;;16.30;13.73;;;26.80;66.30;;;;;;6170731;28;84037;-70
2021/07/14 02:41:14;;;;;;;19.75;14.95;;;26.80;66.20;;;;;;6173400;28;83231;-70
2021/07/14 02:44:15;;;;;;;17.67;13.65;;;26.80;66.30;;;;;;6169066;28;83352;-71
2021/07/14 02:47:15;;;;;;;17.75;13.98;;;26.80;66.80;;;;;;6164078;28;83230;-69
2021/07/14 02:50:16;;;;;;;20.65;14.68;;;26.80;66.20;;;;;;6177670;28;83404;-69
2021/07/14 02:53:16;;;;;;;21.77;14.02;;;26.80;66.10;;;;;;6178521;28;83023;-69
2021/07/14 02:56:19;;;;;;;19.88;13.73;;;26.80;66.10;;;;;;6181529;28;82847;-69
2021/07/14 02:59:20;;;;;;;21.38;13.30;;;26.80;66.20;;;;;;6177442;28;83198;-70
2021/07/14 03:02:20;;;;;;;21.10;14.50;;;26.80;66.30;;;;;;6177030;28;83379;-69
2021/07/14 03:05:21;;;;;;;14.98;12.77;;;26.80;66.30;;;;;;6175267;28;85484;-70
2021/07/14 03:08:21;;;;;;;20.33;14.23;;;26.80;66.10;;;;;;6178876;28;83425;-71
2021/07/14 03:11:21;;;;;;;17.42;12.95;;;26.80;66.20;;;;;;6175311;28;83273;-70
2021/07/14 03:14:22;;;;;;;15.13;12.98;;;26.80;66.40;;;;;;6175839;28;82907;-69
2021/07/14 03:17:22;;;;;;;16.10;12.88;;;26.80;66.30;;;;;;6179174;28;83515;-69
2021/07/14 03:20:23;;;;;;;16.95;12.60;;;26.80;66.20;;;;;;6179809;28;83401;-69
2021/07/14 03:23:23;;;;;;;20.00;13.63;;;26.80;66.30;;;;;;6178506;28;83210;-70
2021/07/14 03:26:24;;;;;;;17.83;12.98;;;26.80;66.20;;;;;;6192695;28;84052;-69
2021/07/14 03:29:24;;;;;;;15.70;13.57;;;26.80;66.70;;;;;;6172670;28;83309;-69
2021/07/14 03:32:25;;;;;;;18.33;13.73;;;26.80;66.60;;;;;;6179043;28;86073;-70
2021/07/14 03:35:25;;;;;;;17.52;13.93;;;26.80;66.40;;;;;;6170168;28;83174;-69
2021/07/14 03:38:26;;;;;;;20.50;14.65;;;26.80;66.40;;;;;;6169642;28;83247;-69
2021/07/14 03:41:26;;;;;;;21.80;14.82;;;26.80;66.60;;;;;;6170412;28;82958;-69
2021/07/14 03:44:27;;;;;;;22.80;14.65;;;26.80;66.20;;;;;;6180716;28;83812;-68
2021/07/14 03:47:27;;;;;;;19.27;14.52;;;26.80;66.20;;;;;;6188468;28;85883;-69
2021/07/14 03:50:28;;;;;;;18.08;14.07;;;26.80;66.10;;;;;;6175966;28;82785;-69
2021/07/14 03:53:28;;;;;;;17.88;13.95;;;26.80;66.40;;;;;;6174525;28;83099;-70
2021/07/14 03:56:29;;;;;;;18.55;15.05;;;26.80;66.20;;;;;;6172600;28;83113;-70
2021/07/14 03:59:30;;;;;;;21.70;14.27;;;26.80;66.80;;;;;;6170564;28;83137;-69
2021/07/14 04:02:31;;;;;;;20.98;14.57;;;26.80;66.20;;;;;;6172867;28;83672;-70
2021/07/14 04:05:31;;;;;;;18.98;13.90;;;26.80;66.20;;;;;;6167295;28;82938;-70
2021/07/14 04:08:32;;;;;;;21.75;14.63;;;26.80;66.50;;;;;;6179099;28;83951;-70
2021/07/14 04:11:32;;;;;;;23.88;13.98;;;26.80;66.40;;;;;;6168318;28;83012;-69
2021/07/14 04:14:33;;;;;;;23.50;14.65;;;26.80;66.40;;;;;;6185027;28;83632;-69
2021/07/14 04:17:33;;;;;;;18.90;14.20;;;26.80;66.50;;;;;;6162562;28;83141;-68
2021/07/14 04:20:34;;;;;;;18.05;14.10;;;26.80;66.50;;;;;;6187623;28;83635;-67
2021/07/14 04:23:34;;;;;;;20.02;13.38;;;26.80;66.30;;;;;;6171921;28;83154;-68
2021/07/14 04:26:35;;;;;;;21.13;13.75;;;26.80;66.30;;;;;;6168012;28;83056;-68
2021/07/14 04:29:35;;;;;;;20.00;13.55;;;26.90;66.50;;;;;;6171301;28;83477;-68
2021/07/14 04:32:35;;;;;;;20.13;14.68;;;26.90;66.50;;;;;;6176875;28;83288;-68
2021/07/14 04:35:36;;;;;;;27.63;16.08;;;26.90;66.80;;;;;;6174577;28;83725;-68
2021/07/14 04:38:36;;;;;;;26.00;20.33;;;26.90;68.90;;;;;;6175187;28;83048;-68
2021/07/14 04:41:37;;;;;;;27.67;20.42;;;26.90;70.00;;;;;;6178748;28;83818;-68
2021/07/14 04:44:48;;;;;;;26.30;20.10;;;26.90;71.80;;;;;;6177547;28;83232;-66
2021/07/14 04:47:48;;;;;;;27.37;20.17;;;26.90;70.10;;;;;;6127502;28;1161689;-68
2021/07/14 04:50:49;;;;;;;27.17;21.55;;;26.90;70.10;;;;;;6170111;28;82859;-70
2021/07/14 04:53:49;;;;;;;25.63;19.17;;;26.90;70.90;;;;;;6174999;28;83277;-69
2021/07/14 04:56:50;;;;;;;21.80;16.92;;;27.00;70.40;;;;;;6179176;28;83329;-69
2021/07/14 04:59:51;;;;;;;25.45;17.98;;;27.00;70.10;;;;;;6177270;28;83035;-69
2021/07/14 05:02:51;;;;;;;25.55;18.38;;;27.00;70.40;;;;;;6169424;28;83990;-69
2021/07/14 05:05:52;;;;;;;21.30;16.52;;;27.00;69.50;;;;;;6177874;28;83297;-71
2021/07/14 05:08:52;;;;;;;20.30;17.00;;;27.10;69.50;;;;;;6174734;28;85778;-69
2021/07/14 05:11:53;;;;;;;23.23;16.92;;;27.10;69.20;;;;;;6165623;28;83766;-69
2021/07/14 05:14:53;;;;;;;21.02;17.13;;;27.10;69.10;;;;;;6165800;28;82974;-69
2021/07/14 05:17:54;;;;;;;20.65;16.38;;;27.10;69.00;;;;;;6178475;28;83342;-69
2021/07/14 05:20:54;;;;;;;19.35;16.58;;;27.10;69.20;;;;;;6170317;28;83567;-67
2021/07/14 05:23:55;;;;;;;25.60;16.20;;;27.10;69.10;;;;;;6177794;28;83238;-68
2021/07/14 05:26:55;;;;;;;21.95;16.73;;;27.10;69.00;;;;;;6173497;28;83287;-68
2021/07/14 05:29:56;;;;;;;24.63;17.80;;;27.10;68.80;;;;;;6165914;28;84216;-68
2021/07/14 05:32:56;;;;;;;19.15;15.82;;;27.10;68.70;;;;;;6176378;28;82924;-67
2021/07/14 05:35:57;;;;;;;18.90;15.90;;;27.20;69.00;;;;;;6166686;28;84234;-69
2021/07/14 05:38:59;;;;;;;29.08;16.92;;;27.20;68.60;;;;;;6170307;28;83319;-71
2021/07/14 05:41:59;;;;;;;22.90;15.50;;;27.20;68.30;;;;;;6177371;28;82936;-66
2021/07/14 05:44:59;;;;;;;23.65;15.73;;;27.20;68.40;;;;;;6175626;28;83957;-68
2021/07/14 05:48:00;;;;;;;21.33;15.55;;;27.20;68.10;;;;;;6162060;28;83447;-65
2021/07/14 05:51:00;;;;;;;28.10;16.33;;;27.20;68.00;;;;;;6179098;28;83759;-67
2021/07/14 05:54:01;;;;;;;25.35;16.80;;;27.20;67.70;;;;;;6176531;28;83074;-67
2021/07/14 05:57:01;;;;;;;26.15;15.50;;;27.20;67.70;;;;;;6173592;28;83107;-66
2021/07/14 06:00:02;;;;;;;19.60;15.40;;;27.30;67.50;;;;;;6172799;28;83002;-66
2021/07/14 06:03:05;;;;;;;24.52;16.40;;;27.20;67.30;;;;;;6177788;28;83242;-66
2021/07/14 06:06:07;;;;;;;33.70;18.15;;;27.20;67.20;;;;;;6177211;28;83094;-70
2021/07/14 06:09:07;;;;;;;25.90;16.58;;;27.20;68.30;;;;;;6178826;28;83729;-66
2021/07/14 06:12:08;;;;;;;26.65;15.13;;;27.20;67.50;;;;;;6170005;28;83317;-67
2021/07/14 06:15:08;;;;;;;25.15;16.15;;;27.20;67.50;;;;;;6168910;28;83951;-66
2021/07/14 06:18:09;;;;;;;21.30;17.48;;;27.20;67.20;;;;;;6164912;28;83912;-66
2021/07/14 06:21:09;;;;;;;22.80;17.52;;;27.20;67.20;;;;;;6162350;28;83529;-65
2021/07/14 06:24:10;;;;;;;22.13;16.88;;;27.20;67.90;;;;;;6167889;28;83738;-66
2021/07/14 06:27:10;;;;;;;23.67;17.23;;;27.20;67.40;;;;;;6168348;28;84376;-70
2021/07/14 06:30:11;;;;;;;26.00;16.83;;;27.20;67.80;;;;;;6168931;28;84066;-69
2021/07/14 06:33:11;;;;;;;23.95;16.50;;;27.20;67.80;;;;;;6163546;28;83012;-67
2021/07/14 06:36:12;;;;;;;27.10;18.00;;;27.20;68.10;;;;;;6172739;28;83445;-67
2021/07/14 06:39:12;;;;;;;24.77;18.42;;;27.20;68.50;;;;;;6176872;28;83165;-67
2021/07/14 06:42:13;;;;;;;26.92;17.58;;;27.30;68.60;;;;;;6175813;28;83184;-66
2021/07/14 06:45:13;;;;;;;21.92;17.83;;;27.30;68.60;;;;;;6177409;28;83336;-67
2021/07/14 06:48:14;;;;;;;27.10;18.10;;;27.20;68.70;;;;;;6176175;28;83742;-68
2021/07/14 06:51:14;;;;;;;22.65;17.27;;;27.20;69.00;;;;;;6174560;28;83240;-68
2021/07/14 06:54:15;;;;;;;27.30;18.80;;;27.20;68.60;;;;;;6178919;28;83468;-66
2021/07/14 06:57:15;;;;;;;26.95;17.85;;;27.30;68.80;;;;;;6171389;28;85174;-67
2021/07/14 07:00:16;;;;;;;32.20;17.52;;;27.30;68.70;;;;;;6177644;28;84446;-67
2021/07/14 07:03:16;;;;;;;23.92;17.40;;;27.30;68.90;;;;;;6165027;28;84594;-68
2021/07/14 07:06:17;;;;;;;32.22;16.60;;;27.30;68.80;;;;;;6165420;28;83411;-68
2021/07/14 07:09:17;;;;;;;27.60;17.52;;;27.30;68.60;;;;;;6176755;28;82711;-68
2021/07/14 07:12:18;;;;;;;21.48;17.70;;;27.30;68.20;;;;;;6167022;28;83923;-68
2021/07/14 07:15:19;;;;;;;21.27;17.15;;;27.30;68.40;;;;;;6172426;28;82984;-68
2021/07/14 07:18:21;;;;;;;25.85;16.08;;;27.30;68.10;;;;;;6171693;28;83455;-68
2021/07/14 07:21:22;;;;;;;26.80;17.08;;;27.30;67.90;;;;;;6166829;28;83411;-70
2021/07/14 07:24:23;;;;;;;24.60;16.75;;;27.30;68.10;;;;;;6178728;28;83396;-70
2021/07/14 07:27:24;;;;;;;27.02;17.00;;;27.30;68.40;;;;;;6169450;28;83564;-68
2021/07/14 07:30:25;;;;;;;23.98;16.65;;;27.40;68.30;;;;;;6166310;28;83510;-69
2021/07/14 07:33:25;;;;;;;19.30;17.17;;;27.40;68.50;;;;;;6161073;28;84431;-69
2021/07/14 07:36:26;;;;;;;26.85;17.58;;;27.40;68.60;;;;;;6169338;28;83147;-70
2021/07/14 07:39:27;;;;;;;25.20;17.83;;;27.40;68.80;;;;;;6182427;28;83836;-68
2021/07/14 07:42:27;;;;;;;23.98;16.98;;;27.40;68.70;;;;;;6182929;28;84030;-70
2021/07/14 07:45:28;;;;;;;24.13;17.50;;;27.40;68.60;;;;;;6169861;28;83236;-69
2021/07/14 07:48:28;;;;;;;21.48;18.15;;;27.40;68.80;;;;;;6178662;28;84157;-69
2021/07/14 07:51:29;;;;;;;22.42;17.75;;;27.40;68.90;;;;;;6178170;28;83348;-69
2021/07/14 07:54:29;;;;;;;26.55;18.83;;;27.40;69.10;;;;;;6181693;28;84043;-68
2021/07/14 07:57:30;;;;;;;22.13;17.95;;;27.40;69.20;;;;;;6179154;28;84347;-67
2021/07/14 08:00:30;;;;;;;30.52;19.20;;;27.40;69.30;;;;;;6183231;28;82859;-67
2021/07/14 08:03:31;;;;;;;24.20;17.55;;;27.40;70.10;;;;;;6168170;28;83467;-67
2021/07/14 08:06:31;;;;;;;23.25;18.67;;;27.40;69.30;;;;;;6169254;28;83061;-68
2021/07/14 08:09:32;;;;;;;24.52;19.40;;;27.40;69.90;;;;;;6173343;28;83126;-67
2021/07/14 08:12:32;;;;;;;25.50;18.83;;;27.50;69.80;;;;;;6173734;28;83276;-67
2021/07/14 08:15:33;;;;;;;31.75;19.10;;;27.40;69.90;;;;;;6168249;28;83542;-68
2021/07/14 08:18:33;;;;;;;24.85;20.17;;;27.50;70.00;;;;;;6178347;28;82697;-68
2021/07/14 08:21:34;;;;;;;26.02;18.85;;;27.50;70.30;;;;;;6177295;28;83788;-68
2021/07/14 08:24:34;;;;;;;24.77;19.73;;;27.50;70.00;;;;;;6178529;28;83145;-69
2021/07/14 08:27:35;;;;;;;24.05;19.55;;;27.50;70.10;;;;;;6161555;28;83350;-67
2021/07/14 08:30:35;;;;;;;26.38;19.00;;;27.50;70.00;;;;;;6163430;28;83491;-67
2021/07/14 08:33:36;;;;;;;24.38;18.88;;;27.50;70.10;;;;;;6178164;28;83337;-67
2021/07/14 08:36:36;;;;;;;35.95;18.98;;;27.60;70.60;;;;;;6173776;28;84219;-68
2021/07/14 08:39:37;;;;;;;25.73;19.27;;;27.60;70.30;;;;;;6177473;28;86008;-67
2021/07/14 08:42:39;;;;;;;28.20;19.27;;;27.60;70.10;;;;;;6179052;28;84394;-67
2021/07/14 08:45:39;;;;;;;25.50;19.45;;;27.60;70.10;;;;;;6178793;28;83059;-66
2021/07/14 08:48:40;;;;;;;25.30;18.98;;;27.60;70.40;;;;;;6173863;28;84078;-67
2021/07/14 08:51:40;;;;;;;21.75;19.30;;;27.60;69.90;;;;;;6167502;28;83842;-67
2021/07/14 08:54:41;;;;;;;25.23;20.73;;;27.60;70.00;;;;;;6165111;28;84859;-66
2021/07/14 08:57:42;;;;;;;22.83;19.33;;;27.70;70.00;;;;;;6171305;28;83027;-66
2021/07/14 09:00:43;;;;;;;23.10;18.25;;;27.60;70.20;;;;;;6178849;28;83157;-66
2021/07/14 09:03:43;;;;;;;26.25;21.08;;;27.70;70.20;;;;;;6176548;28;82887;-66
2021/07/14 09:06:44;;;;;;;27.52;20.35;;;27.70;70.40;;;;;;6175414;28;84112;-67
2021/07/14 09:09:44;;;;;;;23.40;19.08;;;27.70;70.00;;;;;;6166558;28;83596;-66
2021/07/14 09:12:45;;;;;;;24.80;20.65;;;27.70;70.00;;;;;;6169504;28;85318;-66
2021/07/14 09:15:47;;;;;;;24.15;20.55;;;27.60;70.20;;;;;;6175633;28;85561;-66
2021/07/14 09:18:48;;;;;;;25.75;20.60;;;27.60;70.10;;;;;;6179688;28;83186;-65
2021/07/14 09:21:48;;;;;;;25.13;19.65;;;27.70;69.90;;;;;;6175866;28;83010;-65
2021/07/14 09:24:49;;;;;;;25.50;19.95;;;27.70;69.70;;;;;;6170393;28;83159;-65
2021/07/14 09:27:49;;;;;;;23.63;20.05;;;27.70;69.60;;;;;;6176812;28;84009;-65
2021/07/14 09:30:50;;;;;;;26.25;19.83;;;27.70;69.60;;;;;;6178328;28;84396;-65
2021/07/14 09:33:50;;;;;;;22.95;18.75;;;27.70;69.50;;;;;;6176339;28;83423;-65
2021/07/14 09:36:51;;;;;;;25.50;19.13;;;27.70;69.60;;;;;;6178333;28;83771;-65
2021/07/14 09:39:51;;;;;;;23.92;19.30;;;27.80;69.80;;;;;;6169901;28;83563;-64
2021/07/14 09:42:52;;;;;;;24.67;19.20;;;27.70;69.80;;;;;;6186537;28;84098;-65
2021/07/14 09:45:53;;;;;;;24.42;19.00;;;27.70;70.00;;;;;;6169362;28;83949;-65
2021/07/14 09:48:54;;;;;;;28.13;18.55;;;27.80;70.10;;;;;;6167852;28;83285;-65
2021/07/14 09:51:55;;;;;;;30.33;21.83;;;27.70;70.40;;;;;;6177011;28;83081;-63
2021/07/14 09:54:59;;;;;;;39.08;23.45;;;27.70;70.90;;;;;;6171296;28;83267;-62
2021/07/14 09:57:59;;;;;;;32.63;24.48;;;27.70;71.70;;;;;;6169676;28;88231;-63
2021/07/14 10:01:00;;;;;;;71.10;30.27;;;27.70;71.50;;;;;;6173730;28;83195;-63
2021/07/14 10:04:00;;;;;;;77.68;38.20;;;27.70;75.30;;;;;;6175110;28;85508;-65
2021/07/14 10:07:01;;;;;;;67.95;36.20;;;27.70;74.50;;;;;;6172393;28;83776;-65
2021/07/14 10:10:01;;;;;;;97.20;41.80;;;27.70;74.60;;;;;;6166118;28;83250;-66
2021/07/14 10:13:02;;;;;;;80.78;38.88;;;27.70;75.20;;;;;;6163448;28;83180;-64
2021/07/14 10:16:02;;;;;;;83.32;40.85;;;27.80;74.40;;;;;;6171399;28;85627;-66
2021/07/14 10:19:03;;;;;;;88.93;41.13;;;27.80;74.20;;;;;;6165820;28;83182;-66
2021/07/14 10:22:03;;;;;;;97.75;41.65;;;27.80;73.90;;;;;;6181910;28;84547;-65
2021/07/14 10:25:04;;;;;;;89.68;41.60;;;27.90;73.70;;;;;;6171745;28;85869;-65
2021/07/14 10:28:04;;;;;;;60.47;30.73;;;27.90;73.80;;;;;;6183057;28;83851;-65
2021/07/14 10:31:05;;;;;;;72.85;36.85;;;27.90;72.90;;;;;;6176319;28;85476;-65
2021/07/14 10:34:05;;;;;;;107.00;50.38;;;27.90;74.20;;;;;;6174724;28;83220;-65
2021/07/14 10:37:06;;;;;;;57.83;33.58;;;28.00;74.90;;;;;;6162234;28;83124;-65
2021/07/14 10:40:06;;;;;;;131.25;76.30;;;28.00;73.40;;;;;;6175391;28;82879;-65
2021/07/14 10:43:07;;;;;;;90.53;51.70;;;28.00;74.60;;;;;;6177423;28;83584;-65
2021/07/14 10:46:07;;;;;;;62.42;40.33;;;28.00;73.40;;;;;;6178517;28;86274;-65
2021/07/14 10:49:08;;;;;;;70.72;39.85;;;28.00;73.30;;;;;;6169884;28;82831;-65
2021/07/14 10:52:08;;;;;;;57.70;36.15;;;27.90;73.00;;;;;;6169271;28;83035;-66
2021/07/14 10:55:09;;;;;;;64.32;35.28;;;27.90;72.70;;;;;;6163210;28;83991;-65
2021/07/14 10:58:09;;;;;;;50.92;31.77;;;27.90;72.50;;;;;;6169907;28;83275;-66
2021/07/14 11:01:10;;;;;;;44.30;30.48;;;27.90;72.40;;;;;;6171036;28;84008;-65
2021/07/14 11:04:10;;;;;;;45.22;28.33;;;28.00;72.20;;;;;;6172545;28;83061;-64
2021/07/14 11:07:11;;;;;;;32.03;24.83;;;27.90;71.90;;;;;;6168370;28;84342;-65
2021/07/14 11:10:11;;;;;;;36.80;24.63;;;27.90;71.20;;;;;;6168278;28;83499;-64
2021/07/14 11:13:12;;;;;;;30.15;21.77;;;27.90;70.70;;;;;;6176549;28;83420;-64
2021/07/14 11:16:12;;;;;;;33.72;22.48;;;27.90;70.40;;;;;;6173303;28;83456;-65
2021/07/14 11:19:13;;;;;;;29.75;21.55;;;28.00;71.00;;;;;;6174725;28;82919;-65
2021/07/14 11:22:14;;;;;;;27.90;21.98;;;28.10;70.30;;;;;;6175681;28;83602;-66
2021/07/14 11:25:14;;;;;;;28.35;20.42;;;28.10;69.30;;;;;;6173124;28;82968;-66
2021/07/14 11:28:15;;;;;;;30.88;19.05;;;28.10;68.10;;;;;;6170808;28;84562;-65
2021/07/14 11:31:15;;;;;;;26.52;20.48;;;28.00;66.80;;;;;;6174748;28;83012;-65
2021/07/14 11:34:16;;;;;;;28.02;20.77;;;28.00;67.20;;;;;;6168474;28;83714;-66
2021/07/14 11:37:16;;;;;;;26.85;19.60;;;28.00;67.10;;;;;;6163442;28;83023;-66
2021/07/14 11:40:17;;;;;;;24.30;18.13;;;28.00;66.60;;;;;;6171895;28;89454;-66
2021/07/14 11:43:19;;;;;;;26.38;19.25;;;28.10;67.40;;;;;;6173455;28;83214;-66
2021/07/14 11:46:20;;;;;;;24.15;17.95;;;28.10;65.70;;;;;;6179828;28;82943;-66
2021/07/14 11:49:21;;;;;;;24.35;18.55;;;28.00;65.80;;;;;;6167643;28;85608;-66
2021/07/14 11:52:21;;;;;;;26.15;19.25;;;28.00;66.40;;;;;;6180128;28;83177;-67
2021/07/14 11:55:22;;;;;;;21.17;17.92;;;28.10;66.50;;;;;;6179939;28;85584;-66
2021/07/14 11:58:22;;;;;;;26.67;19.17;;;28.20;66.50;;;;;;6178778;28;83348;-64
2021/07/14 12:01:25;;;;;;;21.13;17.58;;;28.20;66.50;;;;;;6179563;28;83795;-67
2021/07/14 12:04:25;;;;;;;24.15;18.75;;;28.10;66.00;;;;;;6178264;28;83275;-67
2021/07/14 12:07:25;;;;;;;27.75;20.48;;;28.10;64.90;;;;;;6177681;28;83556;-66
2021/07/14 12:10:26;;;;;;;25.52;18.83;;;28.10;65.70;;;;;;6177459;28;83095;-67
2021/07/14 12:13:27;;;;;;;28.23;19.17;;;28.10;64.90;;;;;;6165407;28;82985;-66
2021/07/14 12:16:27;;;;;;;24.58;19.33;;;28.10;64.30;;;;;;6175062;28;83662;-66
2021/07/14 12:19:27;;;;;;;31.20;20.20;;;28.10;63.90;;;;;;6180177;28;83256;-65
2021/07/14 12:22:28;;;;;;;24.25;19.60;;;28.10;63.30;;;;;;6179905;28;84601;-65
2021/07/14 12:25:29;;;;;;;22.23;17.63;;;28.10;65.00;;;;;;6179725;28;83000;-65
2021/07/14 12:28:29;;;;;;;20.63;17.38;;;28.10;63.80;;;;;;6178233;28;83900;-66
2021/07/14 12:31:29;;;;;;;30.67;19.33;;;28.10;63.80;;;;;;6179688;28;82709;-68
2021/07/14 12:34:30;;;;;;;26.73;18.00;;;28.10;63.40;;;;;;6177994;28;83885;-65
2021/07/14 12:37:31;;;;;;;23.52;18.08;;;28.10;63.10;;;;;;6178593;28;83103;-67
2021/07/14 12:40:31;;;;;;;27.08;18.88;;;28.10;62.50;;;;;;6178639;28;82931;-65
2021/07/14 12:43:31;;;;;;;24.30;18.42;;;28.20;64.90;;;;;;6172380;28;83206;-66
2021/07/14 12:46:32;;;;;;;23.23;18.08;;;28.20;61.60;;;;;;6174657;28;83553;-66
2021/07/14 12:49:34;;;;;;;23.80;17.77;;;28.20;60.70;;;;;;6166963;28;83501;-66
2021/07/14 12:52:34;;;;;;;26.02;19.50;;;28.20;61.00;;;;;;6168378;28;83347;-64
2021/07/14 12:55:35;;;;;;;20.48;16.83;;;28.20;60.80;;;;;;6162791;28;83013;-66
2021/07/14 12:58:35;;;;;;;26.67;18.65;;;28.20;61.90;;;;;;6188113;28;84349;-66
2021/07/14 13:01:36;;;;;;;22.25;17.58;;;28.10;61.40;;;;;;6170256;28;84143;-65
2021/07/14 13:04:36;;;;;;;31.67;19.77;;;28.20;62.70;;;;;;6173233;28;83257;-66
2021/07/14 13:07:37;;;;;;;22.85;17.50;;;28.20;63.00;;;;;;6174010;28;83013;-66
2021/07/14 13:10:37;;;;;;;25.60;18.48;;;28.30;63.20;;;;;;6166933;28;83275;-66
2021/07/14 13:13:37;;;;;;;27.17;18.17;;;28.20;63.00;;;;;;6171427;28;83391;-66
2021/07/14 13:16:38;;;;;;;22.33;17.13;;;28.20;61.20;;;;;;6169839;28;83214;-65
2021/07/14 13:19:38;;;;;;;22.25;17.10;;;28.20;62.60;;;;;;6166495;28;83045;-66
2021/07/14 13:22:39;;;;;;;26.02;17.02;;;28.20;63.00;;;;;;6173556;28;83305;-65
2021/07/14 13:25:39;;;;;;;20.73;16.90;;;28.20;63.10;;;;;;6168539;28;83009;-66
2021/07/14 13:28:40;;;;;;;22.00;17.17;;;28.20;61.90;;;;;;6165812;28;83415;-66
2021/07/14 13:31:40;;;;;;;30.73;17.88;;;28.20;60.60;;;;;;6174274;28;83139;-64
2021/07/14 13:34:41;;;;;;;23.70;18.13;;;28.20;60.20;;;;;;6170431;28;82897;-66
2021/07/14 13:37:41;;;;;;;25.55;17.25;;;28.20;59.80;;;;;;6172751;28;82963;-67
2021/07/14 13:40:42;;;;;;;25.15;18.02;;;28.30;59.40;;;;;;6166976;28;83287;-64
2021/07/14 13:43:42;;;;;;;24.08;17.20;;;28.30;59.90;;;;;;6165969;28;84199;-66
2021/07/14 13:46:43;;;;;;;29.88;16.70;;;28.30;60.60;;;;;;6181730;28;82922;-66
2021/07/14 13:49:44;;;;;;;26.20;16.00;;;28.30;59.60;;;;;;6173778;28;82817;-66
2021/07/14 13:52:44;;;;;;;25.17;16.50;;;28.30;59.20;;;;;;6173319;28;83268;-67
2021/07/14 13:55:45;;;;;;;22.17;16.05;;;28.30;59.70;;;;;;6168883;28;83898;-67
2021/07/14 13:58:45;;;;;;;19.05;15.13;;;28.30;59.80;;;;;;6160758;28;83281;-66
2021/07/14 14:01:46;;;;;;;20.30;15.15;;;28.30;59.60;;;;;;6170470;28;83403;-67
2021/07/14 14:04:47;;;;;;;21.10;16.15;;;28.30;60.10;;;;;;6176903;28;83045;-67
2021/07/14 14:07:48;;;;;;;20.27;14.90;;;28.30;59.80;;;;;;6176032;28;84509;-67
2021/07/14 14:10:49;;;;;;;24.40;15.30;;;28.30;59.30;;;;;;6166741;28;83776;-67
2021/07/14 14:13:49;;;;;;;25.33;16.02;;;28.30;58.90;;;;;;6168502;28;83076;-66
2021/07/14 14:16:50;;;;;;;21.35;15.57;;;28.30;59.50;;;;;;6159031;28;83850;-66
2021/07/14 14:19:51;;;;;;;22.08;14.30;;;28.30;59.50;;;;;;6160131;28;83824;-66
2021/07/14 14:22:51;;;;;;;18.27;14.95;;;28.30;60.30;;;;;;6163641;28;83041;-65
2021/07/14 14:25:53;;;;;;;21.42;14.80;;;28.30;59.70;;;;;;6169217;28;83151;-66
2021/07/14 14:28:53;;;;;;;21.70;15.95;;;28.30;60.50;;;;;;6166730;28;83896;-66
2021/07/14 14:31:54;;;;;;;17.23;15.15;;;28.30;61.40;;;;;;6164638;28;83392;-67
2021/07/14 14:34:54;;;;;;;19.40;15.88;;;28.30;61.00;;;;;;6162645;28;84211;-68
2021/07/14 14:37:55;;;;;;;20.33;15.20;;;28.30;61.20;;;;;;6163892;28;83416;-69
2021/07/14 14:40:56;;;;;;;25.67;15.18;;;28.30;61.20;;;;;;6159453;28;84181;-66
2021/07/14 14:43:56;;;;;;;23.58;15.60;;;28.30;61.40;;;;;;6163111;28;85603;-67
2021/07/14 14:46:57;;;;;;;26.00;14.77;;;28.30;62.00;;;;;;6162388;28;82998;-67
2021/07/14 14:49:57;;;;;;;26.90;16.25;;;28.20;62.20;;;;;;6164436;28;83846;-69
2021/07/14 14:52:58;;;;;;;24.70;15.02;;;28.30;62.70;;;;;;6164274;28;83565;-66
2021/07/14 14:55:58;;;;;;;25.05;15.20;;;28.30;62.60;;;;;;6170142;28;83035;-67
2021/07/14 14:58:59;;;;;;;24.83;14.23;;;28.30;62.60;;;;;;6165277;28;83971;-67
2021/07/14 15:01:59;;;;;;;24.35;16.02;;;28.20;63.00;;;;;;6169265;28;83499;-67
2021/07/14 15:05:00;;;;;;;30.42;15.77;;;28.30;62.50;;;;;;6165296;28;83181;-64
2021/07/14 15:08:00;;;;;;;19.23;14.40;;;28.30;62.70;;;;;;6164513;28;83940;-66
2021/07/14 15:11:01;;;;;;;29.08;15.00;;;28.20;62.60;;;;;;6181959;28;84172;-68
2021/07/14 15:14:01;;;;;;;25.27;15.35;;;28.20;63.10;;;;;;6169471;28;83265;-66
2021/07/14 15:17:03;;;;;;;22.27;15.02;;;28.30;63.40;;;;;;6164499;28;83455;-66
2021/07/14 15:20:03;;;;;;;18.98;15.07;;;28.20;63.70;;;;;;6173956;28;82996;-67